Main page
METAR-TAF:

METAR-TAF

Airports :

Florida Keys Marathon Airport

Marathon, Florida, United States

latitude: 24-43-33N, longitude: 081-02-52W, elevation: 7 ft

Current weather observation

The report was made 13 minutes ago, at 20:53 UTC
Wind 12 mph from the East with gusts up to 24 mph
Temperature 81°F
Humidity 74%
Pressure 30.11 in. Hg
Visibility: 10 miles
Clear sky

METAR: KMTH 272053Z AUTO 09010G21KT 10SM CLR 27/22 A3011 RMK AO2 SLP195 T02720217 56013

Time: 16:06 (21:06 UTC)

Forecast

The report was made 3 hours and 29 minutes ago, at 17:37 UTC
Forecast valid from 27 at 18 UTC to 28 at 18 UTC
Wind 13 mph from the East/Southeast with gusts up to 23 mph
Visibility: 6 miles
Few clouds at a height of 2500 ft

TAF: KMTH 271737Z 2718/2818 12011G20KT P6SM FEW025

Weather observations and forecasts of more than 4000 airports (METAR and TAF reports).

The available stations are represented by yellow and red dots on the map.

Hover mouse over dot to see the name of the station.

Then click to see weather observations and forecasts.

To change the map : click on the green buttons with a black cross to zoom in, on the green button with a dash to zoom out, or on the green arrows for adjacent maps.


METAR-TAF: